Time;durP1;ratioP1;P1;durP2;ratioP2;P2;SDS_P1;SDS_P2;PMS_P1;PMS_P2;Temp;Humidity;BMP_temperature;BMP_pressure;BME280_temperature;BME280_humidity;BME280_pressure;Samples;Min_cycle;Max_cycle;Signal;HPM_P1;HPM_P2
2022/09/01 00:01:46;;;;;;;0.93;0.93;;;13.10;1.00;;;;;;6179070;23;20258;-87
2022/09/01 00:04:14;;;;;;;0.98;0.80;;;13.10;1.00;;;;;;6178682;23;20179;-87
2022/09/01 00:06:41;;;;;;;1.65;0.70;;;13.00;1.00;;;;;;6180879;23;20158;-87
2022/09/01 00:09:13;;;;;;;0.70;0.70;;;13.10;1.00;;;;;;6181340;23;20174;-87
2022/09/01 00:11:40;;;;;;;0.95;0.60;;;13.00;1.00;;;;;;6179015;23;20147;-89
2022/09/01 00:14:08;;;;;;;1.35;0.88;;;13.00;1.00;;;;;;6179034;23;20179;-88
2022/09/01 00:16:34;;;;;;;1.92;0.73;;;13.00;1.00;;;;;;6178553;23;20179;-87
2022/09/01 00:19:00;;;;;;;0.70;0.70;;;13.10;1.00;;;;;;6180898;23;20151;-88
2022/09/01 00:21:38;;;;;;;1.00;0.80;;;13.00;1.00;;;;;;6179029;23;20163;-87
2022/09/01 00:24:05;;;;;;;1.45;0.85;;;13.00;1.00;;;;;;6179082;23;20205;-87
2022/09/01 00:26:31;;;;;;;2.38;0.80;;;12.90;1.00;;;;;;6179140;23;20170;-88
2022/09/01 00:28:56;;;;;;;1.45;0.70;;;12.90;1.00;;;;;;6179210;23;20252;-86
2022/09/01 00:31:23;;;;;;;1.30;0.70;;;12.90;1.00;;;;;;6180066;23;20923;-86
2022/09/01 00:33:49;;;;;;;1.30;0.73;;;12.90;1.00;;;;;;6179003;23;20258;-87
2022/09/01 00:36:15;;;;;;;1.15;0.73;;;12.90;1.00;;;;;;6180560;23;20195;-87
2022/09/01 00:38:41;;;;;;;1.15;0.80;;;12.80;1.00;;;;;;6180448;23;20159;-87
2022/09/01 00:41:07;;;;;;;0.80;0.80;;;14.10;1.00;;;;;;6180144;23;20155;-85
2022/09/01 00:43:44;;;;;;;0.85;0.80;;;12.80;1.00;;;;;;6178112;23;20686;-87
2022/09/01 00:46:16;;;;;;;3.03;1.00;;;12.80;1.00;;;;;;6179066;23;20159;-86
2022/09/01 00:48:42;;;;;;;1.83;0.70;;;12.80;1.00;;;;;;6177863;23;20161;-88
2022/09/01 00:51:10;;;;;;;2.10;0.90;;;12.70;1.00;;;;;;6178479;23;20619;-87
2022/09/01 00:53:38;;;;;;;1.07;0.97;;;12.60;1.00;;;;;;6178673;23;20186;-86
2022/09/01 00:56:06;;;;;;;1.27;0.90;;;12.60;1.00;;;;;;6178136;23;20183;-87
2022/09/01 00:58:33;;;;;;;2.35;0.90;;;12.50;1.00;;;;;;6178189;23;20170;-87
2022/09/01 01:00:58;;;;;;;1.13;0.80;;;13.00;1.00;;;;;;6179918;23;20598;-88
2022/09/01 01:03:24;;;;;;;1.47;1.00;;;12.40;1.00;;;;;;6177707;23;20175;-88
2022/09/01 01:05:54;;;;;;;1.83;0.70;;;12.30;1.00;;;;;;6178035;23;20170;-87
2022/09/01 01:08:33;;;;;;;2.30;1.00;;;12.40;1.00;;;;;;6178525;23;20159;-87
2022/09/01 01:11:16;;;;;;;2.03;1.00;;;12.40;1.00;;;;;;6179837;23;20211;-86
2022/09/01 01:14:14;;;;;;;1.57;0.80;;;12.30;1.00;;;;;;6178664;23;20179;-87
2022/09/01 01:16:45;;;;;;;2.30;1.07;;;12.30;1.00;;;;;;6178976;23;20193;-88
2022/09/01 01:25:00;;;;;;;1.63;1.10;;;12.30;1.00;;;;;;6179291;23;20202;-87
2022/09/01 01:27:31;;;;;;;1.63;1.07;;;12.20;1.00;;;;;;6178691;23;20213;-88
2022/09/01 01:29:56;;;;;;;2.47;1.17;;;12.20;1.00;;;;;;6179082;23;20584;-88
2022/09/01 01:32:22;;;;;;;1.73;1.00;;;12.20;1.00;;;;;;6178164;23;20174;-87
2022/09/01 01:34:48;;;;;;;2.20;1.37;;;12.10;1.00;;;;;;6177897;23;20249;-87
2022/09/01 01:37:14;;;;;;;1.63;1.07;;;12.50;1.00;;;;;;6179762;23;20201;-87
2022/09/01 01:39:42;;;;;;;1.43;1.00;;;12.00;1.00;;;;;;6177741;23;20197;-86
2022/09/01 01:42:09;;;;;;;1.10;0.80;;;12.10;2.30;;;;;;6177221;23;20285;-87
2022/09/01 01:44:37;;;;;;;2.93;1.17;;;12.10;1.00;;;;;;6178772;23;20205;-86
2022/09/01 01:47:07;;;;;;;2.83;1.20;;;12.00;2.30;;;;;;6177596;23;20171;-87
2022/09/01 01:49:35;;;;;;;2.13;1.10;;;12.30;16.80;;;;;;6176063;23;20182;-88
2022/09/01 01:52:01;;;;;;;0.90;0.90;;;11.90;27.40;;;;;;6176039;23;20190;-88
2022/09/01 01:54:30;;;;;;;1.40;1.10;;;11.90;31.40;;;;;;6175355;23;20178;-88
2022/09/01 01:56:56;;;;;;;2.97;1.10;;;11.90;23.80;;;;;;6177257;23;20238;-88
2022/09/01 01:59:28;;;;;;;1.40;1.00;;;11.80;28.30;;;;;;6177283;23;20238;-88
2022/09/01 02:01:55;;;;;;;2.07;0.90;;;11.70;35.90;;;;;;6180057;23;20158;-87
2022/09/01 02:04:21;;;;;;;2.50;0.90;;;11.80;27.60;;;;;;6178795;23;20217;-87
2022/09/01 02:06:48;;;;;;;2.10;1.10;;;11.80;28.70;;;;;;6178733;23;20155;-88
2022/09/01 02:09:18;;;;;;;2.10;1.00;;;11.90;25.70;;;;;;6178701;23;20163;-86
2022/09/01 02:11:44;;;;;;;2.60;0.97;;;11.90;28.80;;;;;;6179015;23;20646;-89
2022/09/01 02:14:12;;;;;;;2.40;1.10;;;11.80;37.70;;;;;;6179104;23;20262;-87
2022/09/01 02:16:38;;;;;;;1.27;1.07;;;11.70;43.50;;;;;;6180318;23;20178;-87
2022/09/01 02:19:07;;;;;;;0.90;0.90;;;11.70;55.00;;;;;;6178943;23;20167;-87
2022/09/01 02:21:33;;;;;;;1.77;1.10;;;11.60;49.40;;;;;;6178536;23;20166;-86
2022/09/01 02:24:03;;;;;;;1.50;1.00;;;11.50;59.20;;;;;;6180467;23;20234;-87
2022/09/01 02:26:46;;;;;;;0.90;0.80;;;11.60;57.40;;;;;;6179315;23;20603;-88
2022/09/01 02:29:19;;;;;;;1.10;1.00;;;11.50;46.40;;;;;;6177964;23;20155;-87
2022/09/01 02:31:48;;;;;;;1.63;0.90;;;11.60;41.20;;;;;;6178841;23;20685;-87
2022/09/01 02:34:14;;;;;;;2.17;1.00;;;11.50;33.20;;;;;;6178901;23;20265;-86
2022/09/01 02:36:49;;;;;;;1.10;0.90;;;11.40;46.20;;;;;;6178733;23;20983;-87
2022/09/01 02:39:22;;;;;;;1.10;1.00;;;11.30;77.20;;;;;;6178758;23;20150;-88
2022/09/01 02:41:48;;;;;;;0.80;0.80;;;11.30;59.40;;;;;;6178944;23;20154;-87
2022/09/01 02:44:14;;;;;;;2.33;1.10;;;11.30;82.80;;;;;;6178440;23;20562;-86
2022/09/01 02:46:41;;;;;;;1.10;1.00;;;11.30;88.10;;;;;;6179404;23;20182;-87
2022/09/01 02:49:14;;;;;;;1.10;0.83;;;11.30;86.90;;;;;;6179009;23;20159;-87
2022/09/01 02:51:41;;;;;;;1.13;0.90;;;11.20;80.70;;;;;;6178901;23;20234;-86
2022/09/01 02:54:07;;;;;;;1.20;0.90;;;11.10;90.20;;;;;;6178923;23;20232;-87
2022/09/01 02:56:33;;;;;;;2.43;0.97;;;11.10;82.10;;;;;;6178261;23;20191;-86
2022/09/01 02:58:59;;;;;;;1.20;1.10;;;11.10;69.30;;;;;;6180606;23;20151;-87
2022/09/01 03:01:28;;;;;;;1.53;0.80;;;11.00;91.20;;;;;;6178442;23;20190;-86
2022/09/01 03:03:56;;;;;;;1.83;1.00;;;11.00;88.40;;;;;;6178713;23;20178;-86
2022/09/01 03:06:23;;;;;;;2.07;1.03;;;10.80;51.60;;;;;;6178127;23;20173;-87
2022/09/01 03:08:51;;;;;;;1.27;1.10;;;10.70;47.00;;;;;;6178959;23;20217;-87
2022/09/01 03:11:17;;;;;;;2.23;1.00;;;10.60;47.00;;;;;;6179226;23;20591;-88
2022/09/01 03:13:43;;;;;;;1.50;0.97;;;10.60;24.10;;;;;;6180000;23;20187;-85
2022/09/01 03:16:10;;;;;;;3.30;1.27;;;10.70;19.90;;;;;;6178718;23;20182;-87
2022/09/01 03:18:36;;;;;;;1.37;1.00;;;10.60;22.50;;;;;;6179239;23;20155;-85
2022/09/01 03:21:03;;;;;;;1.37;1.20;;;10.60;37.60;;;;;;6179926;23;20166;-84
2022/09/01 03:23:30;;;;;;;1.60;1.40;;;10.50;78.50;;;;;;6180506;23;20181;-87
2022/09/01 03:25:56;;;;;;;1.83;1.30;;;10.40;82.10;;;;;;6181022;23;20277;-87
2022/09/01 03:28:22;;;;;;;2.70;1.30;;;10.20;99.90;;;;;;6179573;23;20163;-87
2022/09/01 03:30:50;;;;;;;1.40;1.20;;;10.20;99.90;;;;;;6180940;23;20170;-88
2022/09/01 03:33:19;;;;;;;1.27;1.10;;;10.30;99.90;;;;;;6177975;23;20175;-87
2022/09/01 03:35:47;;;;;;;1.30;1.20;;;10.10;99.90;;;;;;6178952;23;20185;-87
2022/09/01 03:38:23;;;;;;;1.40;1.30;;;10.00;99.90;;;;;;6181148;23;20182;-88
2022/09/01 03:40:57;;;;;;;2.70;1.20;;;10.10;99.90;;;;;;6178550;23;20241;-87
2022/09/01 03:43:26;;;;;;;1.50;1.10;;;10.20;99.90;;;;;;6177977;23;20237;-88
2022/09/01 03:45:53;;;;;;;1.00;0.93;;;10.20;99.90;;;;;;6177824;23;20549;-88
2022/09/01 03:48:21;;;;;;;2.10;1.57;;;10.20;99.90;;;;;;6178806;23;20238;-87
2022/09/01 03:50:46;;;;;;;1.13;0.93;;;10.10;99.90;;;;;;6177562;23;20193;-87
2022/09/01 03:53:19;;;;;;;2.87;1.30;;;10.10;99.90;;;;;;6178506;23;20187;-89
2022/09/01 03:55:46;;;;;;;1.50;1.20;;;10.20;99.90;;;;;;6179064;23;20178;-86
2022/09/01 03:58:17;;;;;;;1.47;1.13;;;10.10;99.90;;;;;;6180673;23;20166;-88
2022/09/01 04:00:46;;;;;;;2.97;1.20;;;10.00;99.90;;;;;;6179925;23;20155;-87
2022/09/01 04:03:21;;;;;;;9.60;1.43;;;10.00;99.90;;;;;;6179115;23;20185;-88
2022/09/01 04:05:48;;;;;;;2.37;1.50;;;10.00;99.90;;;;;;6179853;23;20159;-87
2022/09/01 04:08:14;;;;;;;2.90;1.13;;;10.20;99.90;;;;;;6180949;23;20155;-88
2022/09/01 04:10:51;;;;;;;0.83;0.80;;;10.30;99.90;;;;;;6179155;23;20185;-87
2022/09/01 04:13:22;;;;;;;1.70;1.10;;;10.30;99.90;;;;;;6178865;23;20187;-88
2022/09/01 04:15:51;;;;;;;2.90;1.30;;;10.30;99.90;;;;;;6178693;23;20209;-88
2022/09/01 04:18:22;;;;;;;2.27;1.20;;;10.30;99.90;;;;;;6179081;23;20462;-87
2022/09/01 04:20:50;;;;;;;2.13;1.10;;;10.50;98.20;;;;;;6178827;23;20158;-87
2022/09/01 04:23:28;;;;;;;1.90;1.30;;;10.50;99.90;;;;;;6179008;23;20186;-87
2022/09/01 04:26:13;;;;;;;1.37;1.20;;;10.60;97.40;;;;;;6180503;23;20165;-87
2022/09/01 04:28:47;;;;;;;1.67;1.10;;;10.60;99.90;;;;;;6179999;23;20155;-87
2022/09/01 04:31:18;;;;;;;2.13;1.20;;;10.80;79.30;;;;;;6179342;23;20558;-87
2022/09/01 04:33:46;;;;;;;1.30;1.20;;;10.70;96.90;;;;;;6180466;23;20178;-88
2022/09/01 04:36:22;;;;;;;2.57;1.30;;;10.80;87.00;;;;;;6178182;23;20511;-88
2022/09/01 04:38:54;;;;;;;4.23;1.13;;;10.80;85.20;;;;;;6179292;23;20155;-86
2022/09/01 04:41:24;;;;;;;2.60;1.20;;;10.80;73.00;;;;;;6179569;23;20469;-87
2022/09/01 04:43:51;;;;;;;4.10;1.30;;;10.90;74.30;;;;;;6179291;23;20667;-88
2022/09/01 04:46:20;;;;;;;1.57;1.23;;;10.90;57.30;;;;;;6178767;23;20155;-88
2022/09/01 04:48:46;;;;;;;2.33;0.90;;;10.80;60.80;;;;;;6179195;23;20201;-86
2022/09/01 04:51:14;;;;;;;2.27;1.27;;;10.90;49.00;;;;;;6179598;23;20198;-89
2022/09/01 04:53:42;;;;;;;2.67;1.33;;;10.90;45.60;;;;;;6182198;23;20187;-88
2022/09/01 04:56:11;;;;;;;1.90;1.20;;;10.90;38.80;;;;;;6179796;23;20183;-89
2022/09/01 04:58:37;;;;;;;3.00;1.20;;;10.90;46.20;;;;;;6179713;23;20154;-87
2022/09/01 05:01:13;;;;;;;1.53;0.97;;;10.90;37.50;;;;;;6179520;23;20185;-88
2022/09/01 05:03:39;;;;;;;1.33;1.13;;;10.90;46.60;;;;;;6180417;23;20175;-88
2022/09/01 05:06:16;;;;;;;2.40;1.20;;;10.90;48.30;;;;;;6179300;23;20221;-86
2022/09/01 05:08:44;;;;;;;1.80;1.27;;;10.90;38.60;;;;;;6178689;23;20591;-88
2022/09/01 05:11:10;;;;;;;1.30;1.00;;;11.10;24.40;;;;;;6181314;23;20193;-88
2022/09/01 05:13:38;;;;;;;1.07;1.00;;;11.10;22.30;;;;;;6180434;23;20581;-89
2022/09/01 05:16:11;;;;;;;3.67;1.77;;;11.30;28.30;;;;;;6181048;23;20506;-87
2022/09/01 05:18:39;;;;;;;1.13;1.00;;;11.40;28.10;;;;;;6179651;23;20182;-87
2022/09/01 05:21:09;;;;;;;4.10;1.20;;;11.50;35.40;;;;;;6180149;23;20180;-87
2022/09/01 05:23:39;;;;;;;1.37;1.27;;;11.40;27.70;;;;;;6177827;23;20183;-87
2022/09/01 05:26:15;;;;;;;2.93;1.27;;;11.50;18.20;;;;;;6179226;23;20220;-87
2022/09/01 05:28:49;;;;;;;3.73;1.30;;;11.60;41.30;;;;;;6182844;23;20909;-87
2022/09/01 05:31:18;;;;;;;1.67;1.10;;;11.70;23.60;;;;;;6180973;23;20215;-88
2022/09/01 05:33:47;;;;;;;2.43;1.10;;;11.70;37.00;;;;;;6181431;23;20171;-86
2022/09/01 05:36:14;;;;;;;1.97;1.43;;;11.90;29.40;;;;;;6180159;23;20228;-87
2022/09/01 05:38:41;;;;;;;4.10;1.40;;;12.10;15.80;;;;;;6181056;23;20338;-87
2022/09/01 05:41:10;;;;;;;2.57;1.20;;;12.20;21.70;;;;;;6179763;23;20159;-87
2022/09/01 05:43:35;;;;;;;1.70;1.30;;;12.30;14.10;;;;;;6179725;23;20179;-87
2022/09/01 05:46:07;;;;;;;2.33;1.30;;;12.40;22.80;;;;;;6179657;23;20163;-88
2022/09/01 05:48:38;;;;;;;2.37;1.37;;;12.60;1.70;;;;;;6180034;23;20159;-89
2022/09/01 05:51:06;;;;;;;3.70;1.20;;;12.80;1.00;;;;;;6179306;23;20565;-88
2022/09/01 05:53:33;;;;;;;2.10;1.20;;;12.80;1.00;;;;;;6179335;23;20210;-87
2022/09/01 05:56:05;;;;;;;2.17;1.10;;;12.90;1.00;;;;;;6179424;23;20182;-87
2022/09/01 05:58:33;;;;;;;3.05;1.30;;;13.10;1.00;;;;;;6179358;23;20147;-88
2022/09/01 06:01:00;;;;;;;2.17;1.08;;;13.20;1.00;;;;;;6180630;23;20612;-88
2022/09/01 06:03:26;;;;;;;2.75;1.27;;;13.30;1.00;;;;;;6180675;23;20666;-88
2022/09/01 06:05:54;;;;;;;3.03;1.17;;;13.40;1.00;;;;;;6182163;23;20206;-88
2022/09/01 06:08:23;;;;;;;1.85;1.20;;;13.50;1.00;;;;;;6182178;23;20155;-87
2022/09/01 06:10:49;;;;;;;2.42;1.27;;;13.50;1.00;;;;;;6180326;23;20246;-87
2022/09/01 06:13:16;;;;;;;2.38;1.27;;;13.70;1.00;;;;;;6181340;23;20205;-87
2022/09/01 06:15:43;;;;;;;2.20;1.30;;;13.70;1.00;;;;;;6179897;23;20187;-87
2022/09/01 06:18:11;;;;;;;1.17;0.93;;;13.60;1.00;;;;;;6180067;23;20187;-87
2022/09/01 06:20:42;;;;;;;1.30;1.20;;;13.60;1.00;;;;;;6181983;23;20151;-87
2022/09/01 06:23:11;;;;;;;1.95;1.20;;;14.30;1.00;;;;;;6179932;23;20264;-87
2022/09/01 06:25:38;;;;;;;2.65;1.38;;;13.40;1.00;;;;;;6179351;23;20159;-87
2022/09/01 06:28:07;;;;;;;2.35;1.10;;;13.50;1.00;;;;;;6179976;23;20166;-87
2022/09/01 06:30:35;;;;;;;1.70;1.15;;;13.50;1.00;;;;;;6180940;23;20337;-87
2022/09/01 06:33:04;;;;;;;1.63;1.20;;;13.70;1.00;;;;;;6181936;23;20155;-88
2022/09/01 06:35:31;;;;;;;1.98;1.10;;;13.80;1.00;;;;;;6180880;23;20191;-86
2022/09/01 06:37:57;;;;;;;1.98;1.20;;;14.00;1.00;;;;;;6182640;23;20151;-88
2022/09/01 06:40:24;;;;;;;1.95;1.13;;;14.20;1.00;;;;;;6180980;23;20163;-87
2022/09/01 06:42:51;;;;;;;1.65;1.52;;;14.20;1.00;;;;;;6181262;23;20152;-87
2022/09/01 06:45:20;;;;;;;1.73;1.10;;;14.10;1.00;;;;;;6180808;23;20198;-87
2022/09/01 06:47:47;;;;;;;1.70;1.17;;;14.20;1.00;;;;;;6180973;23;20225;-87
2022/09/01 06:50:20;;;;;;;1.27;1.02;;;14.40;1.00;;;;;;6181052;23;20163;-86
2022/09/01 06:52:45;;;;;;;1.85;0.90;;;14.60;1.00;;;;;;6181452;23;20181;-88
2022/09/01 06:55:13;;;;;;;4.75;1.10;;;14.80;1.00;;;;;;6185455;23;20616;-88
2022/09/01 06:57:40;;;;;;;1.63;1.02;;;15.00;1.00;;;;;;6184396;23;20158;-87
2022/09/01 07:00:11;;;;;;;2.00;1.25;;;15.10;1.00;;;;;;6187816;23;20151;-88
2022/09/01 07:02:38;;;;;;;2.58;1.08;;;15.30;1.00;;;;;;6197487;23;20161;-89
2022/09/01 07:05:06;;;;;;;2.13;1.05;;;15.50;1.00;;;;;;6182960;23;20198;-88
2022/09/01 07:07:33;;;;;;;1.30;0.80;;;15.60;1.00;;;;;;6182989;23;20611;-88
2022/09/01 07:09:59;;;;;;;1.30;0.80;;;15.80;1.00;;;;;;6182644;23;20163;-88
2022/09/01 07:12:27;;;;;;;3.78;0.98;;;16.20;1.00;;;;;;6182035;23;20254;-88
2022/09/01 07:14:53;;;;;;;3.33;0.90;;;16.60;99.90;;;;;;6184656;23;20193;-87
2022/09/01 07:17:20;;;;;;;1.08;0.70;;;16.90;91.70;;;;;;6182249;23;20159;-88
2022/09/01 07:19:46;;;;;;;2.63;0.93;;;18.50;1.00;;;;;;6182320;23;20885;-90
2022/09/01 07:22:12;;;;;;;0.93;0.63;;;17.40;99.90;;;;;;6183373;23;20163;-88
2022/09/01 07:24:38;;;;;;;1.60;0.50;;;17.60;28.00;;;;;;6185504;23;20217;-89
2022/09/01 07:27:04;;;;;;;1.15;0.80;;;17.30;99.90;;;;;;6184880;23;20219;-88
2022/09/01 07:29:30;;;;;;;1.20;0.60;;;17.30;1.00;;;;;;6183535;23;20607;-87
2022/09/01 07:31:56;;;;;;;1.27;0.75;;;17.50;1.00;;;;;;6182357;23;20155;-88
2022/09/01 07:34:21;;;;;;;1.70;0.60;;;17.30;1.00;;;;;;6183264;23;20175;-88
2022/09/01 07:36:58;;;;;;;1.60;0.65;;;18.30;1.00;;;;;;6182228;23;20221;-87
2022/09/01 07:39:24;;;;;;;0.80;0.70;;;17.40;1.00;;;;;;6180803;23;20174;-88
2022/09/01 07:41:50;;;;;;;1.45;0.60;;;18.10;1.00;;;;;;6179685;23;20655;-88
2022/09/01 07:44:16;;;;;;;0.85;0.50;;;17.70;8.50;;;;;;6178808;23;20577;-88
2022/09/01 07:46:41;;;;;;;0.60;0.40;;;18.60;99.90;;;;;;6181623;23;20158;-88
2022/09/01 07:49:08;;;;;;;2.90;0.52;;;18.60;99.90;;;;;;6181719;23;20167;-87
2022/09/01 07:51:34;;;;;;;1.75;0.63;;;18.00;1.00;;;;;;6181838;23;20166;-88
2022/09/01 07:54:01;;;;;;;1.33;0.60;;;18.20;1.00;;;;;;6181566;23;20186;-88
2022/09/01 07:56:29;;;;;;;1.33;0.52;;;18.20;1.00;;;;;;6181726;23;20261;-88
2022/09/01 07:58:55;;;;;;;4.80;0.70;;;19.30;1.00;;;;;;6181661;23;20159;-89
2022/09/01 08:01:23;;;;;;;0.68;0.43;;;18.90;99.90;;;;;;6181671;23;20227;-89
2022/09/01 08:03:55;;;;;;;2.15;0.65;;;19.20;99.90;;;;;;6183425;23;20190;-88
2022/09/01 08:06:25;;;;;;;1.77;0.60;;;18.40;99.90;;;;;;6181636;23;20197;-90
2022/09/01 08:09:00;;;;;;;2.03;0.60;;;18.90;99.90;;;;;;6180515;23;20221;-89
2022/09/01 08:11:29;;;;;;;1.52;0.50;;;18.80;76.40;;;;;;6183297;23;20165;-87
2022/09/01 08:13:57;;;;;;;0.32;0.32;;;19.50;70.90;;;;;;6184336;23;20504;-86
2022/09/01 08:16:24;;;;;;;7.63;1.00;;;19.10;11.10;;;;;;6183452;23;20526;-85
2022/09/01 08:18:49;;;;;;;4.82;0.80;;;18.90;2.60;;;;;;6183839;23;20155;-87
2022/09/01 08:21:16;;;;;;;3.17;0.50;;;19.00;1.00;;;;;;6181592;23;20193;-88
2022/09/01 08:23:42;;;;;;;1.50;0.40;;;19.10;1.00;;;;;;6180460;23;20175;-87
2022/09/01 08:26:11;;;;;;;1.40;0.60;;;19.70;1.00;;;;;;6179951;23;20614;-87
2022/09/01 08:28:41;;;;;;;1.92;0.50;;;19.30;1.00;;;;;;6180382;23;20174;-88
2022/09/01 08:31:10;;;;;;;1.70;0.43;;;19.60;1.00;;;;;;6185374;23;20144;-89
2022/09/01 08:33:38;;;;;;;1.15;0.50;;;19.90;1.00;;;;;;6184478;23;20524;-88
2022/09/01 08:36:07;;;;;;;0.40;0.40;;;19.90;1.00;;;;;;6183111;23;20183;-87
2022/09/01 08:38:33;;;;;;;0.80;0.40;;;19.70;1.00;;;;;;6181824;23;20166;-88
2022/09/01 08:40:59;;;;;;;0.68;0.40;;;19.50;1.00;;;;;;6182684;23;20150;-87
2022/09/01 08:43:31;;;;;;;0.68;0.40;;;19.70;1.00;;;;;;6181711;23;20179;-89
2022/09/01 08:46:11;;;;;;;0.70;0.47;;;19.60;1.00;;;;;;6183842;23;20147;-87
2022/09/01 08:49:05;;;;;;;2.33;0.60;;;19.70;1.00;;;;;;6182243;23;20151;-88
2022/09/01 08:51:42;;;;;;;0.63;0.40;;;19.80;1.00;;;;;;6175245;23;20162;-88
2022/09/01 08:54:28;;;;;;;0.77;0.40;;;20.00;1.00;;;;;;6182480;23;20236;-87
2022/09/01 08:56:59;;;;;;;0.82;0.50;;;20.10;1.00;;;;;;6183994;23;20197;-87
2022/09/01 08:59:26;;;;;;;0.55;0.40;;;20.20;99.90;;;;;;6186058;23;20397;-87
2022/09/01 09:02:14;;;;;;;1.02;0.40;;;20.60;99.90;;;;;;6186941;23;20159;-87
2022/09/01 09:04:55;;;;;;;1.48;0.50;;;20.20;99.90;;;;;;6185185;23;20175;-86
2022/09/01 09:07:54;;;;;;;0.77;0.43;;;20.00;99.90;;;;;;6187289;23;20209;-87
2022/09/01 09:10:29;;;;;;;3.08;0.47;;;20.00;99.90;;;;;;6187752;23;20143;-86
2022/09/01 09:13:07;;;;;;;0.65;0.50;;;20.00;99.90;;;;;;6188489;23;20153;-87
2022/09/01 09:15:50;;;;;;;2.40;0.40;;;19.90;99.90;;;;;;6187811;23;20214;-87
2022/09/01 09:18:39;;;;;;;0.52;0.40;;;19.80;99.90;;;;;;6186823;23;20143;-86
2022/09/01 09:21:16;;;;;;;0.68;0.50;;;19.90;99.90;;;;;;6187282;23;20144;-87
2022/09/01 09:23:47;;;;;;;0.55;0.40;;;20.00;99.90;;;;;;6187408;23;20534;-87
2022/09/01 09:26:14;;;;;;;2.08;0.40;;;20.10;99.90;;;;;;6187623;23;20150;-87
2022/09/01 09:28:39;;;;;;;3.63;0.65;;;20.30;99.90;;;;;;6187188;23;20155;-89
2022/09/01 09:31:42;;;;;;;1.92;0.57;;;20.20;99.90;;;;;;6188073;23;20627;-87
2022/09/01 09:34:17;;;;;;;2.53;0.50;;;20.10;99.90;;;;;;6187995;23;20183;-88
2022/09/01 09:36:45;;;;;;;1.40;0.50;;;20.10;99.90;;;;;;6187106;23;20445;-87
2022/09/01 09:39:17;;;;;;;0.40;0.40;;;20.10;99.90;;;;;;6185512;23;21017;-86
2022/09/01 09:42:00;;;;;;;2.13;0.40;;;20.20;99.90;;;;;;6184727;23;20155;-88
2022/09/01 09:44:29;;;;;;;1.00;0.50;;;20.50;99.90;;;;;;6186985;23;20191;-85
2022/09/01 09:46:56;;;;;;;2.05;0.60;;;20.30;99.90;;;;;;6187944;23;20155;-87
2022/09/01 09:49:25;;;;;;;0.88;0.50;;;20.40;99.90;;;;;;6183978;23;20650;-87
2022/09/01 09:52:13;;;;;;;2.75;0.63;;;21.00;99.90;;;;;;6184189;23;20162;-88
2022/09/01 09:54:57;;;;;;;3.25;0.50;;;20.50;99.90;;;;;;6186396;23;20225;-87
2022/09/01 09:57:23;;;;;;;0.55;0.40;;;20.30;99.90;;;;;;6185703;23;20150;-85
2022/09/01 09:59:54;;;;;;;0.70;0.70;;;20.60;99.90;;;;;;6187108;23;20159;-88
2022/09/01 10:02:32;;;;;;;2.17;0.50;;;20.40;99.90;;;;;;6186037;23;20147;-87
2022/09/01 10:05:20;;;;;;;0.70;0.45;;;20.60;99.90;;;;;;6185670;23;20186;-87
2022/09/01 10:07:46;;;;;;;0.98;0.50;;;20.70;99.90;;;;;;6183754;23;20211;-86
2022/09/01 10:10:39;;;;;;;0.52;0.40;;;20.60;99.90;;;;;;6177959;23;20525;-89
2022/09/01 10:13:10;;;;;;;2.40;0.60;;;20.60;99.90;;;;;;6183385;23;20166;-88
2022/09/01 10:15:36;;;;;;;0.75;0.50;;;20.60;99.90;;;;;;6178448;23;20635;-86
2022/09/01 10:18:14;;;;;;;1.02;0.40;;;20.60;99.90;;;;;;6178643;23;20162;-87
2022/09/01 10:21:05;;;;;;;2.90;0.50;;;20.60;99.90;;;;;;6178574;23;20193;-86
2022/09/01 10:23:33;;;;;;;1.08;0.50;;;20.50;99.90;;;;;;6177675;23;20205;-87
2022/09/01 10:26:18;;;;;;;0.55;0.40;;;20.50;99.90;;;;;;6178627;23;20166;-90
2022/09/01 10:28:58;;;;;;;2.08;0.47;;;20.60;99.90;;;;;;6177197;23;20187;-89
2022/09/01 10:31:25;;;;;;;0.65;0.40;;;20.80;99.90;;;;;;6179336;23;20174;-92
2022/09/01 10:33:55;;;;;;;0.90;0.45;;;21.00;99.90;;;;;;6179173;23;20182;-90
2022/09/01 10:36:21;;;;;;;2.30;0.50;;;21.10;99.90;;;;;;6182402;23;20179;-89
2022/09/01 10:38:50;;;;;;;1.17;0.50;;;20.90;99.90;;;;;;6181634;23;20162;-91
2022/09/01 10:41:56;;;;;;;1.60;0.50;;;20.90;99.90;;;;;;6179088;23;20159;-91
2022/09/01 10:44:54;;;;;;;2.85;0.82;;;20.80;99.90;;;;;;6180972;23;20198;-92
2022/09/01 10:47:41;;;;;;;6.85;0.85;;;21.10;99.90;;;;;;6181619;23;20171;-89
2022/09/01 10:50:33;;;;;;;0.88;0.45;;;21.10;99.90;;;;;;6133068;23;20611;-91
2022/09/01 14:34:30;;;;;;;1.13;0.60;;;22.70;60.10;;;;;;6178859;23;20647;-86
2022/09/01 14:36:56;;;;;;;1.00;0.73;;;23.70;89.80;;;;;;6173961;23;20230;-86
2022/09/01 14:39:25;;;;;;;1.92;0.60;;;22.90;78.90;;;;;;6175061;23;20662;-88
2022/09/01 14:41:51;;;;;;;0.63;0.40;;;22.90;57.70;;;;;;6174215;23;20159;-87
2022/09/01 14:44:16;;;;;;;0.65;0.50;;;23.20;76.60;;;;;;6173587;23;20233;-88
2022/09/01 14:46:42;;;;;;;1.05;0.40;;;22.90;60.20;;;;;;6173864;23;20163;-87
2022/09/01 14:49:10;;;;;;;1.70;0.75;;;22.90;78.30;;;;;;6175418;23;20163;-89
2022/09/01 14:51:37;;;;;;;1.73;0.68;;;22.90;55.90;;;;;;6174653;23;20159;-89
2022/09/01 14:54:02;;;;;;;0.77;0.40;;;22.70;71.10;;;;;;6177010;23;20175;-87
2022/09/01 14:56:28;;;;;;;0.63;0.35;;;22.60;70.70;;;;;;6176100;23;20325;-88
2022/09/01 14:58:59;;;;;;;0.50;0.40;;;23.20;72.00;;;;;;6179528;23;20166;-87
2022/09/01 15:01:26;;;;;;;2.00;0.38;;;22.60;53.20;;;;;;6180037;23;20147;-87
2022/09/01 15:03:51;;;;;;;1.35;0.50;;;23.20;70.40;;;;;;6179344;23;20181;-87
2022/09/01 15:06:19;;;;;;;1.65;0.35;;;22.60;69.00;;;;;;6181471;23;20226;-88
2022/09/01 15:08:45;;;;;;;1.48;0.47;;;23.00;66.50;;;;;;6182770;23;20225;-89
2022/09/01 15:11:17;;;;;;;0.75;0.50;;;22.50;63.80;;;;;;6183812;23;20249;-88
2022/09/01 15:13:44;;;;;;;0.50;0.50;;;22.40;62.90;;;;;;6184070;23;20183;-89
2022/09/01 15:16:20;;;;;;;0.40;0.40;;;22.10;63.40;;;;;;6183227;23;20206;-88
2022/09/01 15:18:45;;;;;;;2.05;0.50;;;22.20;62.00;;;;;;6182428;23;20161;-87
2022/09/01 15:21:27;;;;;;;1.58;0.43;;;22.60;63.30;;;;;;6183205;23;20198;-88
2022/09/01 15:23:53;;;;;;;0.88;0.60;;;22.00;63.60;;;;;;6180564;23;20261;-88
2022/09/01 15:26:19;;;;;;;1.08;0.60;;;22.00;65.20;;;;;;6179555;23;20193;-87
2022/09/01 15:28:46;;;;;;;3.28;0.38;;;22.50;69.70;;;;;;6182440;23;20155;-86
2022/09/01 15:31:13;;;;;;;1.35;0.40;;;21.80;56.60;;;;;;6180514;23;20186;-86
2022/09/01 15:33:40;;;;;;;1.92;0.60;;;22.10;54.80;;;;;;6181652;23;20250;-87
2022/09/01 15:36:07;;;;;;;3.35;0.85;;;22.20;72.60;;;;;;6178119;23;20171;-88
2022/09/01 15:38:33;;;;;;;0.52;0.52;;;22.30;69.50;;;;;;6175712;23;20249;-86
2022/09/01 15:41:05;;;;;;;1.23;0.60;;;22.60;51.50;;;;;;6175835;23;20159;-88
2022/09/01 15:43:31;;;;;;;1.15;0.47;;;22.70;52.80;;;;;;6176031;23;20233;-87
2022/09/01 15:46:18;;;;;;;1.95;0.77;;;22.70;54.40;;;;;;6177560;23;20158;-87
2022/09/01 15:49:36;;;;;;;2.42;0.32;;;22.40;74.50;;;;;;6179098;23;20217;-87
2022/09/01 15:52:10;;;;;;;0.63;0.40;;;22.40;62.90;;;;;;6092538;23;20184;-87
2022/09/01 15:54:50;;;;;;;2.92;0.52;;;21.70;80.70;;;;;;6179617;23;20179;-87
2022/09/01 15:57:17;;;;;;;1.58;0.40;;;22.30;83.50;;;;;;6179843;23;20147;-87
2022/09/01 15:59:59;;;;;;;4.03;0.45;;;22.30;90.70;;;;;;6176259;23;20166;-88
2022/09/01 16:02:26;;;;;;;2.65;0.40;;;22.10;94.10;;;;;;6177287;23;20155;-87
2022/09/01 18:26:21;;;;;;;1.50;0.60;;;17.40;99.90;;;;;;6180707;23;20605;-86
2022/09/01 18:28:52;;;;;;;0.60;0.45;;;17.30;99.90;;;;;;6183416;23;20515;-85
2022/09/01 18:31:33;;;;;;;1.88;0.50;;;17.30;99.90;;;;;;6182643;23;20147;-86
2022/09/01 18:34:26;;;;;;;0.80;0.80;;;17.30;99.90;;;;;;6182905;23;20199;-85
2022/09/01 18:36:55;;;;;;;2.03;1.02;;;17.30;1.00;;;;;;6182829;23;20199;-85
2022/09/01 18:39:35;;;;;;;1.60;1.30;;;17.10;1.00;;;;;;6183092;23;20143;-85
2022/09/01 18:42:36;;;;;;;0.90;0.77;;;17.10;1.00;;;;;;6182499;23;20158;-85
2022/09/01 18:45:20;;;;;;;1.20;1.10;;;17.10;1.00;;;;;;6183652;23;20180;-85
2022/09/01 18:48:05;;;;;;;2.17;0.90;;;17.00;1.00;;;;;;6181939;23;20159;-86
2022/09/01 18:50:58;;;;;;;1.08;0.50;;;17.30;1.00;;;;;;6181985;23;20158;-85
2022/09/01 18:53:48;;;;;;;2.10;0.88;;;16.80;1.00;;;;;;6182110;23;20210;-85
2022/09/01 18:56:32;;;;;;;2.50;0.52;;;16.60;1.00;;;;;;6182159;23;20627;-88
2022/09/01 18:59:03;;;;;;;1.38;0.50;;;16.50;1.00;;;;;;6182658;23;20154;-86
2022/09/01 19:01:35;;;;;;;2.15;0.40;;;16.40;1.00;;;;;;6182878;23;20598;-90
2022/09/01 19:04:26;;;;;;;3.90;0.52;;;17.30;1.00;;;;;;6182130;23;20225;-88
2022/09/01 19:07:08;;;;;;;0.90;0.40;;;16.20;1.00;;;;;;6182612;23;20163;-87
2022/09/01 19:09:49;;;;;;;1.20;0.40;;;16.10;1.00;;;;;;6183162;23;20186;-88
2022/09/01 19:12:34;;;;;;;2.90;0.80;;;16.10;1.00;;;;;;6182869;23;20159;-89
2022/09/01 19:15:19;;;;;;;1.17;0.40;;;16.10;28.40;;;;;;6181988;23;20187;-90
2022/09/01 19:18:03;;;;;;;0.45;0.40;;;16.00;99.90;;;;;;6183418;23;20151;-88
2022/09/01 19:20:54;;;;;;;1.20;0.50;;;16.00;99.90;;;;;;6183597;23;20162;-87